sensor_id;sensor_type;location;lat;lon;timestamp;pressure;altitude;pressure_sealevel;temperature;humidity
27144;BME280;14672;50.250;8.312;2023-03-01T00:01:13;99966.66;;;3.87;50.53
27144;BME280;14672;50.250;8.312;2023-03-01T00:03:39;99954.94;;;3.78;50.53
27144;BME280;14672;50.250;8.312;2023-03-01T00:06:06;99956.53;;;3.79;50.51
27144;BME280;14672;50.250;8.312;2023-03-01T00:08:32;99948.09;;;3.79;50.27
27144;BME280;14672;50.250;8.312;2023-03-01T00:13:41;99955.31;;;3.76;50.50
27144;BME280;14672;50.250;8.312;2023-03-01T00:16:16;99960.16;;;3.79;50.83
27144;BME280;14672;50.250;8.312;2023-03-01T00:18:42;99967.72;;;3.72;50.98
27144;BME280;14672;50.250;8.312;2023-03-01T00:21:09;99968.06;;;3.67;51.28
27144;BME280;14672;50.250;8.312;2023-03-01T00:23:36;99964.41;;;3.63;51.22
27144;BME280;14672;50.250;8.312;2023-03-01T00:26:06;99964.78;;;3.58;51.60
27144;BME280;14672;50.250;8.312;2023-03-01T00:28:32;99963.56;;;3.59;51.62
27144;BME280;14672;50.250;8.312;2023-03-01T00:31:14;99957.34;;;3.43;52.04
27144;BME280;14672;50.250;8.312;2023-03-01T00:33:41;99953.41;;;3.47;51.39
27144;BME280;14672;50.250;8.312;2023-03-01T00:36:08;99953.34;;;3.40;51.32
27144;BME280;14672;50.250;8.312;2023-03-01T00:38:36;99944.50;;;3.38;51.75
27144;BME280;14672;50.250;8.312;2023-03-01T00:41:05;99938.50;;;3.43;51.91
27144;BME280;14672;50.250;8.312;2023-03-01T00:43:31;99940.13;;;3.44;51.44
27144;BME280;14672;50.250;8.312;2023-03-01T00:46:05;99940.06;;;3.37;51.79
27144;BME280;14672;50.250;8.312;2023-03-01T00:48:32;99939.59;;;3.31;51.97
27144;BME280;14672;50.250;8.312;2023-03-01T00:51:09;99940.06;;;3.37;52.34
27144;BME280;14672;50.250;8.312;2023-03-01T00:53:35;99935.56;;;3.29;51.91
27144;BME280;14672;50.250;8.312;2023-03-01T00:56:03;99932.72;;;3.25;52.00
27144;BME280;14672;50.250;8.312;2023-03-01T00:58:29;99930.63;;;3.19;51.88
27144;BME280;14672;50.250;8.312;2023-03-01T01:00:55;99935.53;;;3.25;52.17
27144;BME280;14672;50.250;8.312;2023-03-01T01:03:21;99924.63;;;3.20;51.96
27144;BME280;14672;50.250;8.312;2023-03-01T01:05:47;99924.94;;;3.12;52.03
27144;BME280;14672;50.250;8.312;2023-03-01T01:08:13;99928.13;;;3.10;52.23
27144;BME280;14672;50.250;8.312;2023-03-01T01:10:39;99932.94;;;3.10;52.64
27144;BME280;14672;50.250;8.312;2023-03-01T01:13:05;99922.84;;;3.05;52.71
27144;BME280;14672;50.250;8.312;2023-03-01T01:15:34;99913.63;;;3.05;52.91
27144;BME280;14672;50.250;8.312;2023-03-01T01:18:00;99912.03;;;3.07;52.83
27144;BME280;14672;50.250;8.312;2023-03-01T01:20:26;99907.94;;;2.98;52.66
27144;BME280;14672;50.250;8.312;2023-03-01T01:22:52;99906.00;;;3.05;52.61
27144;BME280;14672;50.250;8.312;2023-03-01T01:25:19;99896.75;;;3.01;53.14
27144;BME280;14672;50.250;8.312;2023-03-01T01:27:44;99900.66;;;2.93;53.07
27144;BME280;14672;50.250;8.312;2023-03-01T01:30:11;99904.63;;;2.92;53.30
27144;BME280;14672;50.250;8.312;2023-03-01T01:32:37;99900.72;;;3.00;53.18
27144;BME280;14672;50.250;8.312;2023-03-01T01:35:03;99899.44;;;2.91;53.64
27144;BME280;14672;50.250;8.312;2023-03-01T01:37:29;99891.41;;;2.93;53.19
27144;BME280;14672;50.250;8.312;2023-03-01T01:39:58;99885.81;;;2.93;53.45
27144;BME280;14672;50.250;8.312;2023-03-01T01:42:25;99882.47;;;2.83;53.74
27144;BME280;14672;50.250;8.312;2023-03-01T01:48:00;99871.69;;;2.86;53.73
27144;BME280;14672;50.250;8.312;2023-03-01T01:50:28;99883.69;;;2.82;53.72
27144;BME280;14672;50.250;8.312;2023-03-01T01:53:09;99872.84;;;2.81;53.89
27144;BME280;14672;50.250;8.312;2023-03-01T01:55:37;99885.66;;;2.78;53.53
27144;BME280;14672;50.250;8.312;2023-03-01T01:58:09;99888.78;;;2.73;54.16
27144;BME280;14672;50.250;8.312;2023-03-01T02:00:37;99896.06;;;2.78;53.99
27144;BME280;14672;50.250;8.312;2023-03-01T02:03:19;99889.97;;;2.72;54.31
27144;BME280;14672;50.250;8.312;2023-03-01T02:06:10;99881.22;;;2.77;54.39
27144;BME280;14672;50.250;8.312;2023-03-01T02:08:40;99886.06;;;2.80;54.04
27144;BME280;14672;50.250;8.312;2023-03-01T02:11:08;99890.03;;;2.79;54.00
27144;BME280;14672;50.250;8.312;2023-03-01T02:13:36;99898.06;;;2.77;54.01
27144;BME280;14672;50.250;8.312;2023-03-01T02:16:11;99896.50;;;2.83;53.91
27144;BME280;14672;50.250;8.312;2023-03-01T02:18:39;99886.84;;;2.77;54.18
27144;BME280;14672;50.250;8.312;2023-03-01T02:21:47;99881.66;;;2.83;54.34
27144;BME280;14672;50.250;8.312;2023-03-01T02:24:38;99876.88;;;2.83;54.31
27144;BME280;14672;50.250;8.312;2023-03-01T02:27:06;99879.69;;;2.83;54.48
27144;BME280;14672;50.250;8.312;2023-03-01T02:29:32;99875.31;;;2.86;53.95
27144;BME280;14672;50.250;8.312;2023-03-01T02:32:00;99872.88;;;2.84;53.64
27144;BME280;14672;50.250;8.312;2023-03-01T02:34:28;99864.47;;;2.84;53.87
27144;BME280;14672;50.250;8.312;2023-03-01T02:37:09;99864.78;;;2.79;53.94
27144;BME280;14672;50.250;8.312;2023-03-01T02:39:46;99859.66;;;2.85;53.95
27144;BME280;14672;50.250;8.312;2023-03-01T02:42:19;99849.25;;;2.86;53.50
27144;BME280;14672;50.250;8.312;2023-03-01T02:44:48;99853.25;;;2.84;53.43
27144;BME280;14672;50.250;8.312;2023-03-01T02:47:14;99842.44;;;2.87;53.63
27144;BME280;14672;50.250;8.312;2023-03-01T02:49:40;99850.75;;;2.79;53.89
27144;BME280;14672;50.250;8.312;2023-03-01T02:52:47;99842.84;;;2.89;53.59
27144;BME280;14672;50.250;8.312;2023-03-01T02:55:18;99838.41;;;2.84;53.20
27144;BME280;14672;50.250;8.312;2023-03-01T02:57:46;99837.84;;;2.71;53.85
27144;BME280;14672;50.250;8.312;2023-03-01T03:00:22;99837.50;;;2.76;53.61
27144;BME280;14672;50.250;8.312;2023-03-01T03:02:52;99836.84;;;2.87;53.67
27144;BME280;14672;50.250;8.312;2023-03-01T03:05:27;99830.56;;;3.00;52.93
27144;BME280;14672;50.250;8.312;2023-03-01T03:07:54;99823.44;;;3.10;53.13
27144;BME280;14672;50.250;8.312;2023-03-01T03:10:30;99822.16;;;3.04;53.09
27144;BME280;14672;50.250;8.312;2023-03-01T03:13:04;99826.25;;;3.10;53.26
27144;BME280;14672;50.250;8.312;2023-03-01T03:15:30;99826.09;;;2.96;53.58
27144;BME280;14672;50.250;8.312;2023-03-01T03:17:58;99825.66;;;2.90;53.54
27144;BME280;14672;50.250;8.312;2023-03-01T03:20:27;99832.16;;;2.98;53.67
27144;BME280;14672;50.250;8.312;2023-03-01T03:22:55;99814.03;;;2.92;53.67
27144;BME280;14672;50.250;8.312;2023-03-01T03:25:22;99822.09;;;2.97;53.28
27144;BME280;14672;50.250;8.312;2023-03-01T03:27:50;99817.25;;;2.94;53.10
27144;BME280;14672;50.250;8.312;2023-03-01T03:30:30;99818.19;;;3.05;52.99
27144;BME280;14672;50.250;8.312;2023-03-01T03:32:57;99818.59;;;3.07;53.07
27144;BME280;14672;50.250;8.312;2023-03-01T03:35:38;99804.81;;;2.95;53.13
27144;BME280;14672;50.250;8.312;2023-03-01T03:38:08;99790.41;;;2.96;53.42
27144;BME280;14672;50.250;8.312;2023-03-01T03:40:55;99790.50;;;3.07;52.90
27144;BME280;14672;50.250;8.312;2023-03-01T03:43:26;99783.56;;;2.90;53.15
27144;BME280;14672;50.250;8.312;2023-03-01T03:45:52;99789.44;;;2.78;53.95
27144;BME280;14672;50.250;8.312;2023-03-01T03:48:20;99781.50;;;2.87;53.65
27144;BME280;14672;50.250;8.312;2023-03-01T03:50:55;99787.44;;;2.78;53.27
27144;BME280;14672;50.250;8.312;2023-03-01T03:53:24;99777.81;;;2.79;53.58
27144;BME280;14672;50.250;8.312;2023-03-01T03:55:51;99782.75;;;2.90;53.42
27144;BME280;14672;50.250;8.312;2023-03-01T03:58:19;99781.50;;;2.87;53.29
27144;BME280;14672;50.250;8.312;2023-03-01T04:00:49;99785.06;;;2.84;52.84
27144;BME280;14672;50.250;8.312;2023-03-01T04:03:16;99794.22;;;2.77;53.45
27144;BME280;14672;50.250;8.312;2023-03-01T04:05:44;99804.97;;;2.72;53.14
27144;BME280;14672;50.250;8.312;2023-03-01T04:08:11;99801.63;;;2.59;53.89
27144;BME280;14672;50.250;8.312;2023-03-01T04:10:44;99798.41;;;2.57;54.75
27144;BME280;14672;50.250;8.312;2023-03-01T04:13:14;99796.13;;;2.66;53.68
27144;BME280;14672;50.250;8.312;2023-03-01T04:15:40;99798.16;;;2.69;53.62
27144;BME280;14672;50.250;8.312;2023-03-01T04:18:10;99798.03;;;2.59;53.75
27144;BME280;14672;50.250;8.312;2023-03-01T04:20:37;99786.09;;;2.65;53.63
27144;BME280;14672;50.250;8.312;2023-03-01T04:23:10;99788.88;;;2.65;53.76
27144;BME280;14672;50.250;8.312;2023-03-01T04:25:54;99788.38;;;2.56;54.00
27144;BME280;14672;50.250;8.312;2023-03-01T04:28:32;99789.22;;;2.60;53.32
27144;BME280;14672;50.250;8.312;2023-03-01T04:31:16;99793.91;;;2.49;53.97
27144;BME280;14672;50.250;8.312;2023-03-01T04:33:50;99792.75;;;2.54;53.95
27144;BME280;14672;50.250;8.312;2023-03-01T04:36:23;99792.81;;;2.57;53.80
27144;BME280;14672;50.250;8.312;2023-03-01T04:38:50;99787.63;;;2.63;53.81
27144;BME280;14672;50.250;8.312;2023-03-01T04:41:19;99792.94;;;2.71;53.67
27144;BME280;14672;50.250;8.312;2023-03-01T04:43:45;99785.03;;;2.80;53.21
27144;BME280;14672;50.250;8.312;2023-03-01T04:46:14;99784.63;;;2.78;53.34
27144;BME280;14672;50.250;8.312;2023-03-01T04:48:42;99788.28;;;2.82;53.06
27144;BME280;14672;50.250;8.312;2023-03-01T04:51:08;99779.09;;;2.86;52.83
27144;BME280;14672;50.250;8.312;2023-03-01T04:53:35;99780.72;;;2.87;53.49
27144;BME280;14672;50.250;8.312;2023-03-01T04:56:04;99782.38;;;2.95;52.86
27144;BME280;14672;50.250;8.312;2023-03-01T04:58:30;99781.91;;;2.86;52.89
27144;BME280;14672;50.250;8.312;2023-03-01T05:00:56;99777.59;;;2.99;52.71
27144;BME280;14672;50.250;8.312;2023-03-01T05:03:22;99778.81;;;2.98;52.85
27144;BME280;14672;50.250;8.312;2023-03-01T05:05:50;99773.28;;;3.08;52.87
27144;BME280;14672;50.250;8.312;2023-03-01T05:08:17;99766.81;;;3.01;52.31
27144;BME280;14672;50.250;8.312;2023-03-01T05:10:51;99770.03;;;3.03;52.53
27144;BME280;14672;50.250;8.312;2023-03-01T05:13:20;99778.03;;;3.01;52.35
27144;BME280;14672;50.250;8.312;2023-03-01T05:16:00;99782.19;;;3.14;52.39
27144;BME280;14672;50.250;8.312;2023-03-01T05:18:29;99776.19;;;3.19;51.97
27144;BME280;14672;50.250;8.312;2023-03-01T05:21:11;99769.81;;;3.22;52.18
27144;BME280;14672;50.250;8.312;2023-03-01T05:23:40;99770.28;;;3.31;51.89
27144;BME280;14672;50.250;8.312;2023-03-01T05:26:07;99765.03;;;3.26;51.78
27144;BME280;14672;50.250;8.312;2023-03-01T05:28:34;99762.22;;;3.22;51.53
27144;BME280;14672;50.250;8.312;2023-03-01T05:31:00;99764.94;;;3.15;52.63
27144;BME280;14672;50.250;8.312;2023-03-01T05:33:27;99763.69;;;3.09;52.40
27144;BME280;14672;50.250;8.312;2023-03-01T05:35:53;99765.97;;;2.97;52.38
27144;BME280;14672;50.250;8.312;2023-03-01T05:38:20;99774.44;;;3.04;52.79
27144;BME280;14672;50.250;8.312;2023-03-01T05:40:48;99763.56;;;2.99;52.80
27144;BME280;14672;50.250;8.312;2023-03-01T05:43:16;99776.41;;;3.00;52.25
27144;BME280;14672;50.250;8.312;2023-03-01T05:45:43;99772.75;;;2.96;52.62
27144;BME280;14672;50.250;8.312;2023-03-01T05:48:11;99770.78;;;2.96;52.55
27144;BME280;14672;50.250;8.312;2023-03-01T05:50:43;99764.00;;;3.01;52.52
27144;BME280;14672;50.250;8.312;2023-03-01T05:53:17;99765.16;;;2.96;52.53
27144;BME280;14672;50.250;8.312;2023-03-01T05:55:43;99772.75;;;2.96;52.41
27144;BME280;14672;50.250;8.312;2023-03-01T05:58:14;99758.03;;;3.06;52.68
27144;BME280;14672;50.250;8.312;2023-03-01T06:00:41;99745.06;;;2.91;52.67
27144;BME280;14672;50.250;8.312;2023-03-01T06:03:12;99765.06;;;2.86;52.93
27144;BME280;14672;50.250;8.312;2023-03-01T06:05:39;99754.91;;;2.74;53.18
27144;BME280;14672;50.250;8.312;2023-03-01T06:08:05;99748.09;;;2.75;53.29
27144;BME280;14672;50.250;8.312;2023-03-01T06:10:31;99740.91;;;2.74;53.26
27144;BME280;14672;50.250;8.312;2023-03-01T06:12:57;99747.31;;;2.74;53.53
27144;BME280;14672;50.250;8.312;2023-03-01T06:15:24;99750.53;;;2.76;53.66
27144;BME280;14672;50.250;8.312;2023-03-01T06:17:50;99748.91;;;2.75;53.75
27144;BME280;14672;50.250;8.312;2023-03-01T06:20:22;99754.94;;;2.77;53.68
27144;BME280;14672;50.250;8.312;2023-03-01T06:22:49;99760.50;;;2.70;53.60
27144;BME280;14672;50.250;8.312;2023-03-01T06:25:21;99756.09;;;2.73;53.71
27144;BME280;14672;50.250;8.312;2023-03-01T06:27:48;99756.97;;;2.80;53.68
27144;BME280;14672;50.250;8.312;2023-03-01T06:30:17;99759.31;;;2.75;53.84
27144;BME280;14672;50.250;8.312;2023-03-01T06:32:43;99749.00;;;2.82;53.34
27144;BME280;14672;50.250;8.312;2023-03-01T06:35:12;99750.47;;;2.69;54.15
27144;BME280;14672;50.250;8.312;2023-03-01T06:37:39;99749.69;;;2.72;54.40
27144;BME280;14672;50.250;8.312;2023-03-01T06:40:06;99755.78;;;2.78;53.77
27144;BME280;14672;50.250;8.312;2023-03-01T06:42:38;99747.31;;;2.74;54.05
27144;BME280;14672;50.250;8.312;2023-03-01T06:45:06;99749.75;;;2.79;54.19
27144;BME280;14672;50.250;8.312;2023-03-01T06:47:33;99750.59;;;2.83;53.73
27144;BME280;14672;50.250;8.312;2023-03-01T06:50:03;99749.50;;;2.95;53.51
27144;BME280;14672;50.250;8.312;2023-03-01T06:52:28;99761.84;;;2.87;53.69
27144;BME280;14672;50.250;8.312;2023-03-01T06:54:54;99747.47;;;2.92;53.39
27144;BME280;14672;50.250;8.312;2023-03-01T06:57:20;99745.94;;;2.98;53.57
27144;BME280;14672;50.250;8.312;2023-03-01T06:59:47;99745.88;;;2.95;53.74
27144;BME280;14672;50.250;8.312;2023-03-01T07:02:14;99749.94;;;2.97;53.84
27144;BME280;14672;50.250;8.312;2023-03-01T07:04:41;99749.91;;;2.94;53.79
27144;BME280;14672;50.250;8.312;2023-03-01T07:07:07;99743.56;;;3.04;53.43
27144;BME280;14672;50.250;8.312;2023-03-01T07:09:33;99746.06;;;3.12;53.03
27144;BME280;14672;50.250;8.312;2023-03-01T07:11:59;99740.44;;;3.12;53.16
27144;BME280;14672;50.250;8.312;2023-03-01T07:14:25;99748.88;;;3.12;52.99
27144;BME280;14672;50.250;8.312;2023-03-01T07:16:55;99748.03;;;3.08;53.70
27144;BME280;14672;50.250;8.312;2023-03-01T07:19:21;99750.91;;;3.19;53.85
27144;BME280;14672;50.250;8.312;2023-03-01T07:21:47;99743.63;;;3.11;53.34
27144;BME280;14672;50.250;8.312;2023-03-01T07:24:13;99742.88;;;3.14;53.42
27144;BME280;14672;50.250;8.312;2023-03-01T07:26:39;99750.91;;;3.19;53.29
27144;BME280;14672;50.250;8.312;2023-03-01T07:29:07;99747.75;;;3.24;53.53
27144;BME280;14672;50.250;8.312;2023-03-01T07:31:34;99749.72;;;3.20;54.14
27144;BME280;14672;50.250;8.312;2023-03-01T07:34:00;99733.41;;;3.33;53.54
27144;BME280;14672;50.250;8.312;2023-03-01T07:36:26;99743.78;;;3.28;53.30
27144;BME280;14672;50.250;8.312;2023-03-01T07:38:52;99741.44;;;3.34;53.25
27144;BME280;14672;50.250;8.312;2023-03-01T07:41:18;99739.09;;;3.43;53.19
27144;BME280;14672;50.250;8.312;2023-03-01T07:43:44;99732.75;;;3.53;53.54
27144;BME280;14672;50.250;8.312;2023-03-01T07:46:10;99724.31;;;3.53;53.06
27144;BME280;14672;50.250;8.312;2023-03-01T07:48:35;99711.16;;;3.68;52.92
27144;BME280;14672;50.250;8.312;2023-03-01T07:51:04;99716.84;;;3.78;53.33
27144;BME280;14672;50.250;8.312;2023-03-01T07:53:31;99712.47;;;3.85;53.43
27144;BME280;14672;50.250;8.312;2023-03-01T07:56:11;99716.13;;;3.96;52.68
27144;BME280;14672;50.250;8.312;2023-03-01T07:58:40;99724.22;;;4.04;52.74
27144;BME280;14672;50.250;8.312;2023-03-01T08:01:13;99724.66;;;4.10;52.18
27144;BME280;14672;50.250;8.312;2023-03-01T08:03:39;99724.31;;;4.25;51.81
27144;BME280;14672;50.250;8.312;2023-03-01T08:06:08;99724.72;;;4.31;51.76
27144;BME280;14672;50.250;8.312;2023-03-01T08:08:35;99727.56;;;4.38;50.98
27144;BME280;14672;50.250;8.312;2023-03-01T08:11:03;99713.91;;;4.33;50.92
27144;BME280;14672;50.250;8.312;2023-03-01T08:13:30;99725.59;;;4.46;50.29
27144;BME280;14672;50.250;8.312;2023-03-01T08:16:11;99724.38;;;4.50;50.35
27144;BME280;14672;50.250;8.312;2023-03-01T08:18:37;99729.25;;;4.60;50.13
27144;BME280;14672;50.250;8.312;2023-03-01T08:21:05;99722.84;;;4.70;50.00
27144;BME280;14672;50.250;8.312;2023-03-01T08:23:32;99720.44;;;4.65;50.15
27144;BME280;14672;50.250;8.312;2023-03-01T08:26:20;99718.03;;;4.74;50.00
27144;BME280;14672;50.250;8.312;2023-03-01T08:28:48;99714.44;;;4.81;49.81
27144;BME280;14672;50.250;8.312;2023-03-01T08:31:19;99716.84;;;4.86;50.01
27144;BME280;14672;50.250;8.312;2023-03-01T08:33:47;99710.44;;;4.93;49.54
27144;BME280;14672;50.250;8.312;2023-03-01T08:36:17;99716.88;;;4.93;49.60
27144;BME280;14672;50.250;8.312;2023-03-01T08:38:43;99718.88;;;5.03;49.32
27144;BME280;14672;50.250;8.312;2023-03-01T08:41:09;99717.25;;;5.06;49.01
27144;BME280;14672;50.250;8.312;2023-03-01T08:43:35;99700.78;;;5.08;49.45
27144;BME280;14672;50.250;8.312;2023-03-01T08:46:01;99708.41;;;5.07;49.41
27144;BME280;14672;50.250;8.312;2023-03-01T08:48:28;99706.00;;;5.16;49.13
27144;BME280;14672;50.250;8.312;2023-03-01T08:50:54;99695.94;;;5.15;48.92
27144;BME280;14672;50.250;8.312;2023-03-01T08:53:20;99692.34;;;5.29;48.63
27144;BME280;14672;50.250;8.312;2023-03-01T08:55:46;99691.53;;;5.29;48.88
27144;BME280;14672;50.250;8.312;2023-03-01T08:58:12;99685.88;;;5.39;48.49
27144;BME280;14672;50.250;8.312;2023-03-01T09:00:38;99685.84;;;5.46;48.49
27144;BME280;14672;50.250;8.312;2023-03-01T09:03:04;99690.69;;;5.56;48.41
27144;BME280;14672;50.250;8.312;2023-03-01T09:05:34;99696.69;;;5.62;48.55
27144;BME280;14672;50.250;8.312;2023-03-01T09:08:00;99687.44;;;5.68;48.30
27144;BME280;14672;50.250;8.312;2023-03-01T09:10:25;99693.06;;;5.68;48.03
27144;BME280;14672;50.250;8.312;2023-03-01T09:12:51;99684.59;;;5.76;47.79
27144;BME280;14672;50.250;8.312;2023-03-01T09:15:17;99680.13;;;5.82;47.89
27144;BME280;14672;50.250;8.312;2023-03-01T09:17:43;99677.75;;;5.87;48.53
27144;BME280;14672;50.250;8.312;2023-03-01T09:20:10;99677.69;;;6.01;48.13
27144;BME280;14672;50.250;8.312;2023-03-01T09:22:36;99672.50;;;7.24;46.18
27144;BME280;14672;50.250;8.312;2023-03-01T09:25:02;99665.84;;;10.16;40.69
27144;BME280;14672;50.250;8.312;2023-03-01T09:27:27;99671.25;;;11.51;38.14
27144;BME280;14672;50.250;8.312;2023-03-01T09:29:53;99667.53;;;12.28;36.53
27144;BME280;14672;50.250;8.312;2023-03-01T09:32:22;99650.22;;;13.14;35.07
27144;BME280;14672;50.250;8.312;2023-03-01T09:34:48;99641.47;;;13.90;33.57
27144;BME280;14672;50.250;8.312;2023-03-01T09:37:29;99633.34;;;14.23;32.67
27144;BME280;14672;50.250;8.312;2023-03-01T09:39:55;99643.31;;;14.62;32.35
27144;BME280;14672;50.250;8.312;2023-03-01T09:42:21;99644.38;;;14.77;32.02
27144;BME280;14672;50.250;8.312;2023-03-01T09:45:05;99638.16;;;14.78;32.04
27144;BME280;14672;50.250;8.312;2023-03-01T09:47:35;99627.41;;;15.31;31.30
27144;BME280;14672;50.250;8.312;2023-03-01T09:50:14;99624.22;;;15.29;31.43
27144;BME280;14672;50.250;8.312;2023-03-01T09:55:43;99614.06;;;13.58;33.14
27144;BME280;14672;50.250;8.312;2023-03-01T10:01:31;99623.25;;;12.10;35.47
27144;BME280;14672;50.250;8.312;2023-03-01T10:07:42;99623.31;;;11.65;36.79
27144;BME280;14672;50.250;8.312;2023-03-01T10:10:32;99629.13;;;11.46;36.84
27144;BME280;14672;50.250;8.312;2023-03-01T10:13:04;99630.19;;;11.36;37.24
27144;BME280;14672;50.250;8.312;2023-03-01T10:15:47;99622.97;;;11.31;36.85
27144;BME280;14672;50.250;8.312;2023-03-01T10:18:19;99617.56;;;11.37;36.98
27144;BME280;14672;50.250;8.312;2023-03-01T10:21:02;99624.75;;;11.41;36.90
27144;BME280;14672;50.250;8.312;2023-03-01T10:23:32;99606.16;;;11.53;36.76
27144;BME280;14672;50.250;8.312;2023-03-01T10:26:41;99604.47;;;11.55;36.93
27144;BME280;14672;50.250;8.312;2023-03-01T10:29:12;99591.84;;;11.56;36.54
27144;BME280;14672;50.250;8.312;2023-03-01T10:31:52;99587.81;;;11.70;36.18
27144;BME280;14672;50.250;8.312;2023-03-01T10:34:31;99582.84;;;11.74;36.16
27144;BME280;14672;50.250;8.312;2023-03-01T10:37:12;99584.31;;;11.78;35.78
27144;BME280;14672;50.250;8.312;2023-03-01T10:39:56;99585.72;;;11.87;35.40
27144;BME280;14672;50.250;8.312;2023-03-01T10:42:30;99581.66;;;12.00;35.17
27144;BME280;14672;50.250;8.312;2023-03-01T10:44:58;99584.19;;;12.11;35.23
27144;BME280;14672;50.250;8.312;2023-03-01T10:47:27;99583.19;;;12.17;35.34
27144;BME280;14672;50.250;8.312;2023-03-01T10:50:05;99576.84;;;12.39;35.28
27144;BME280;14672;50.250;8.312;2023-03-01T10:52:40;99576.63;;;12.46;35.32
27144;BME280;14672;50.250;8.312;2023-03-01T10:57:41;99562.94;;;12.66;34.42
27144;BME280;14672;50.250;8.312;2023-03-01T11:00:19;99565.66;;;12.95;34.40
27144;BME280;14672;50.250;8.312;2023-03-01T11:03:12;99556.56;;;13.12;34.03
27144;BME280;14672;50.250;8.312;2023-03-01T11:06:21;99555.91;;;13.30;33.62
27144;BME280;14672;50.250;8.312;2023-03-01T11:08:49;99546.81;;;13.57;33.09
27144;BME280;14672;50.250;8.312;2023-03-01T11:11:32;99558.16;;;13.70;33.32
27144;BME280;14672;50.250;8.312;2023-03-01T11:14:13;99542.44;;;13.87;33.10
27144;BME280;14672;50.250;8.312;2023-03-01T11:16:47;99540.28;;;14.22;32.86
27144;BME280;14672;50.250;8.312;2023-03-01T11:19:19;99545.41;;;14.27;32.17
27144;BME280;14672;50.250;8.312;2023-03-01T11:22:02;99533.47;;;14.41;31.89
27144;BME280;14672;50.250;8.312;2023-03-01T11:24:43;99547.31;;;14.30;31.69
27144;BME280;14672;50.250;8.312;2023-03-01T11:27:25;99532.16;;;14.42;31.38
27144;BME280;14672;50.250;8.312;2023-03-01T11:30:15;99531.13;;;14.57;30.87
27144;BME280;14672;50.250;8.312;2023-03-01T11:33:11;99521.41;;;14.95;30.63
27144;BME280;14672;50.250;8.312;2023-03-01T11:38:47;99515.75;;;15.31;30.09
27144;BME280;14672;50.250;8.312;2023-03-01T11:41:25;99505.41;;;15.43;29.71
27144;BME280;14672;50.250;8.312;2023-03-01T11:44:18;99501.47;;;15.68;29.58
27144;BME280;14672;50.250;8.312;2023-03-01T11:47:07;99499.72;;;15.79;28.84
27144;BME280;14672;50.250;8.312;2023-03-01T12:07:17;99465.09;;;16.85;27.66
27144;BME280;14672;50.250;8.312;2023-03-01T12:10:25;99459.97;;;17.13;28.00
27144;BME280;14672;50.250;8.312;2023-03-01T12:41:47;99402.97;;;18.67;26.50
27144;BME280;14672;50.250;8.312;2023-03-01T12:49:55;99385.69;;;19.07;25.44
27144;BME280;14672;50.250;8.312;2023-03-01T12:52:42;99383.56;;;19.28;25.29
27144;BME280;14672;50.250;8.312;2023-03-01T12:55:43;99368.69;;;19.30;25.51
27144;BME280;14672;50.250;8.312;2023-03-01T13:07:36;99364.44;;;19.45;25.98
27144;BME280;14672;50.250;8.312;2023-03-01T13:17:54;99348.69;;;19.72;25.21
27144;BME280;14672;50.250;8.312;2023-03-01T13:28:52;99343.66;;;19.93;24.93
27144;BME280;14672;50.250;8.312;2023-03-01T13:33:54;99336.81;;;19.90;24.66
27144;BME280;14672;50.250;8.312;2023-03-01T13:38:56;99323.69;;;19.89;24.60
27144;BME280;14672;50.250;8.312;2023-03-01T13:46:38;99316.94;;;19.41;24.50
27144;BME280;14672;50.250;8.312;2023-03-01T13:49:04;99312.56;;;19.45;24.63
27144;BME280;14672;50.250;8.312;2023-03-01T13:51:30;99304.72;;;19.26;24.54
27144;BME280;14672;50.250;8.312;2023-03-01T13:53:57;99308.22;;;19.35;24.74
27144;BME280;14672;50.250;8.312;2023-03-01T13:56:29;99304.84;;;19.37;25.13
27144;BME280;14672;50.250;8.312;2023-03-01T13:59:17;99315.13;;;19.43;25.17
27144;BME280;14672;50.250;8.312;2023-03-01T14:01:43;99315.06;;;19.38;24.89
27144;BME280;14672;50.250;8.312;2023-03-01T14:04:24;99313.41;;;19.31;24.62
27144;BME280;14672;50.250;8.312;2023-03-01T14:06:52;99301.47;;;19.38;24.69
27144;BME280;14672;50.250;8.312;2023-03-01T14:09:25;99313.72;;;19.33;25.20
27144;BME280;14672;50.250;8.312;2023-03-01T14:20:38;99304.06;;;19.10;25.12
27144;BME280;14672;50.250;8.312;2023-03-01T14:23:13;99307.31;;;18.98;25.77
27144;BME280;14672;50.250;8.312;2023-03-01T14:25:55;99297.53;;;19.15;25.73
27144;BME280;14672;50.250;8.312;2023-03-01T14:28:23;99297.94;;;19.03;26.08
27144;BME280;14672;50.250;8.312;2023-03-01T14:30:55;99298.25;;;18.85;25.98
27144;BME280;14672;50.250;8.312;2023-03-01T14:33:28;99291.06;;;18.74;26.26
27144;BME280;14672;50.250;8.312;2023-03-01T14:36:03;99296.97;;;18.65;26.83
27144;BME280;14672;50.250;8.312;2023-03-01T14:38:38;99291.34;;;18.76;26.58
27144;BME280;14672;50.250;8.312;2023-03-01T14:41:21;99292.00;;;18.66;25.97
27144;BME280;14672;50.250;8.312;2023-03-01T14:44:19;99292.63;;;18.55;26.13
27144;BME280;14672;50.250;8.312;2023-03-01T14:46:44;99291.88;;;18.40;26.42
27144;BME280;14672;50.250;8.312;2023-03-01T14:49:24;99290.13;;;18.28;27.08
27144;BME280;14672;50.250;8.312;2023-03-01T14:52:00;99276.22;;;18.41;26.82
27144;BME280;14672;50.250;8.312;2023-03-01T14:54:49;99282.31;;;17.94;27.22
27144;BME280;14672;50.250;8.312;2023-03-01T14:57:20;99280.31;;;18.00;27.28
27144;BME280;14672;50.250;8.312;2023-03-01T14:59:53;99270.72;;;17.88;27.08
27144;BME280;14672;50.250;8.312;2023-03-01T15:02:25;99272.38;;;17.74;27.09
27144;BME280;14672;50.250;8.312;2023-03-01T15:04:56;99283.66;;;17.78;27.03
27144;BME280;14672;50.250;8.312;2023-03-01T15:07:26;99292.66;;;17.86;27.33
27144;BME280;14672;50.250;8.312;2023-03-01T15:09:55;99290.38;;;17.90;27.05
27144;BME280;14672;50.250;8.312;2023-03-01T15:14:53;99289.19;;;17.81;27.15
27144;BME280;14672;50.250;8.312;2023-03-01T15:17:36;99288.13;;;17.64;27.34
27144;BME280;14672;50.250;8.312;2023-03-01T15:20:18;99292.47;;;17.45;27.69
27144;BME280;14672;50.250;8.312;2023-03-01T15:22:47;99293.75;;;17.29;27.18
27144;BME280;14672;50.250;8.312;2023-03-01T15:25:23;99291.47;;;17.33;27.57
27144;BME280;14672;50.250;8.312;2023-03-01T15:27:52;99296.81;;;17.26;27.55
27144;BME280;14672;50.250;8.312;2023-03-01T15:30:34;99287.63;;;17.22;27.88